Impacts TAF Board
For situational awareness. Not to be used for flight planning purposes.
IDs:

KBOS - Boston/Logan Intl, MA, US

Issued at 1504 UTC 01 Mar 2021
Updated at 1716 UTC 01 Mar 2021
Potential Impact None Slight Moderate High
Time1654Z 01/18Z 01/19Z 01/20Z 01/21Z 01/22Z 01/23Z 02/00Z 02/01Z 02/02Z 02/03Z 02/04Z 02/05Z 02/06Z>>
Type OBS PRVL PRVL PRVL PRVL PRVL PRVL PRVL PRVL PRVL PRVL PRVL PRVL PRVL
VIS 10 >6 >6 >6 >6 >6 >6 >6 >6 >6 >6 >6 >6 >6
CIG 9 45 45 45 45 200 200 200 200 -- -- -- -- 35
Cover OVC BKN BKN BKN BKN BKN BKN BKN BKN FEW FEW FEW FEW BKN
FltCat IFR VFR VFR VFR VFR VFR VFR VFR VFR VFR VFR VFR VFR VFR
WX -- -- -- -- -- -- -- -- -- -- -- -- -- --
WDir 270 280 280 280 280 280 280 280 280 280 280 280 280 290
WSpd 5 14 14 14 14 16 16 16 16 20 20 20 20 22
WGst -- 22 22 22 22 28 28 28 28 38 38 38 38 42
Raw TAF
KBOS 011504Z 0115/0218 28008KT 5SM BR OVC004
  FM011630 28012KT P6SM BKN008 OVC035
  FM011800 28014G22KT P6SM BKN045
  FM012200 28016G28KT P6SM BKN200
  FM020200 28020G38KT P6SM FEW100
  FM020600 29022G42KT P6SM BKN035


Raw METAR
KBOS 011654Z 27005KT 10SM OVC009 05/04 A2950 RMK AO2 SLP988 T00500044
KBOS 011554Z 29007KT 10SM OVC005 05/04 A2950 RMK AO2 SLP990 T00500044
KBOS 011514Z 28006KT 7SM FEW003 OVC005 04/04 A2952 RMK AO2 T00440044
KBOS 011503Z 27006KT 6SM BR OVC004 04/04 A2954 RMK AO2 T00440044
KBOS 011454Z 27007KT 1/2SM R04R/P6000FT BR OVC004 05/05 A2954 RMK AO2 SFC VIS 4 RAE28 SLP003 P0000 60003 T00500050 56035

METAR Board
Radar Display
Forecast Discussion
For situational awareness. Not to be used for flight planning purposes.